createdAt,value
2023-04-07T00:02:12.459Z,3.62
2023-04-07T00:04:40.491Z,3.61
2023-04-07T00:07:10.436Z,3.61
2023-04-07T00:09:38.147Z,3.59
2023-04-07T00:12:06.126Z,3.64
2023-04-07T00:14:33.776Z,3.63
2023-04-07T00:17:01.390Z,3.62
2023-04-07T00:19:29.065Z,3.69
2023-04-07T00:21:56.786Z,3.76
2023-04-07T00:24:33.873Z,3.80
2023-04-07T00:27:02.552Z,3.79
2023-04-07T00:29:30.258Z,3.84
2023-04-07T00:31:58.119Z,3.83
2023-04-07T00:34:25.843Z,3.82
2023-04-07T00:36:53.554Z,3.81
2023-04-07T00:39:22.040Z,3.82
2023-04-07T00:41:51.349Z,3.81
2023-04-07T00:44:18.993Z,3.78
2023-04-07T00:46:48.839Z,3.82
2023-04-07T00:49:17.772Z,3.80
2023-04-07T00:51:46.956Z,3.85
2023-04-07T00:54:14.847Z,3.83
2023-04-07T00:56:43.657Z,3.83
2023-04-07T00:59:13.119Z,3.84
2023-04-07T01:01:47.246Z,3.81
2023-04-07T01:04:23.777Z,3.83
2023-04-07T01:06:55.795Z,3.85
2023-04-07T01:09:31.590Z,3.85
2023-04-07T01:12:04.531Z,3.80
2023-04-07T01:14:38.523Z,3.78
2023-04-07T01:17:08.798Z,3.75
2023-04-07T01:19:39.208Z,3.74
2023-04-07T01:22:10.968Z,3.70
2023-04-07T01:25:02.024Z,3.70
2023-04-07T01:27:55.860Z,3.65
2023-04-07T01:30:28.997Z,3.59
2023-04-07T01:32:59.218Z,3.58
2023-04-07T01:35:28.881Z,3.50
2023-04-07T01:37:57.865Z,3.45
2023-04-07T01:40:26.955Z,3.39
2023-04-07T01:42:57.524Z,3.37
2023-04-07T01:45:27.857Z,3.32
2023-04-07T01:47:56.036Z,3.27
2023-04-07T01:50:24.720Z,3.21
2023-04-07T01:52:53.761Z,3.21
2023-04-07T01:55:22.320Z,3.20
2023-04-07T01:57:49.966Z,3.24
2023-04-07T02:00:18.008Z,3.18
2023-04-07T02:02:50.464Z,3.13
2023-04-07T02:05:21.509Z,3.14
2023-04-07T02:07:53.195Z,3.14
2023-04-07T02:10:24.216Z,3.10
2023-04-07T02:12:53.507Z,3.13
2023-04-07T02:15:23.024Z,3.11
2023-04-07T02:17:54.581Z,3.08
2023-04-07T02:20:23.903Z,3.06
2023-04-07T02:22:51.845Z,3.09
2023-04-07T02:25:26.737Z,3.06
2023-04-07T02:27:55.355Z,3.08
2023-04-07T02:30:23.561Z,3.06
2023-04-07T02:32:52.631Z,3.06
2023-04-07T02:35:20.494Z,3.04
2023-04-07T02:37:48.628Z,2.98
2023-04-07T02:40:16.622Z,3.05
2023-04-07T02:42:44.313Z,3.06
2023-04-07T02:45:13.118Z,3.03
2023-04-07T02:47:41.097Z,3.04
2023-04-07T02:50:11.066Z,3.04
2023-04-07T02:52:38.798Z,3.05
2023-04-07T02:55:07.380Z,3.07
2023-04-07T02:57:35.113Z,3.08
2023-04-07T03:00:03.097Z,3.04
2023-04-07T03:02:30.991Z,3.07
2023-04-07T03:04:58.847Z,3.10
2023-04-07T03:07:27.990Z,3.08
2023-04-07T03:09:55.719Z,3.10
2023-04-07T03:12:23.397Z,3.11
2023-04-07T03:14:51.158Z,3.13
2023-04-07T03:17:18.950Z,3.15
2023-04-07T03:19:47.032Z,3.15
2023-04-07T03:22:14.741Z,3.17
2023-04-07T03:24:43.774Z,3.18
2023-04-07T03:27:11.471Z,3.17
2023-04-07T03:29:39.146Z,3.16
2023-04-07T03:32:06.919Z,3.21
2023-04-07T03:34:34.570Z,3.18
2023-04-07T03:37:02.339Z,3.18
2023-04-07T03:39:30.170Z,3.13
2023-04-07T03:41:59.350Z,3.12
2023-04-07T03:44:27.075Z,3.09
2023-04-07T03:46:54.779Z,3.09
2023-04-07T03:49:22.901Z,3.11
2023-04-07T03:51:50.642Z,3.13
2023-04-07T03:54:18.269Z,3.09
2023-04-07T03:56:46.229Z,3.05
2023-04-07T03:59:15.326Z,3.02
2023-04-07T04:01:43.061Z,3.03
2023-04-07T04:04:10.828Z,3.05
2023-04-07T04:06:38.535Z,3.05
2023-04-07T04:09:06.379Z,3.04
2023-04-07T04:11:34.020Z,3.01
2023-04-07T04:14:01.623Z,3.04
2023-04-07T04:16:32.434Z,3.05
2023-04-07T04:19:00.128Z,3.08
2023-04-07T04:21:27.969Z,3.11
2023-04-07T04:23:55.694Z,3.14
2023-04-07T04:26:25.943Z,3.18
2023-04-07T04:28:53.906Z,3.24
2023-04-07T04:31:21.690Z,3.21
2023-04-07T04:33:51.033Z,3.19
2023-04-07T04:36:18.795Z,3.22
2023-04-07T04:38:46.567Z,3.25
2023-04-07T04:41:14.249Z,3.25
2023-04-07T04:43:42.531Z,3.22
2023-04-07T04:46:10.484Z,3.17
2023-04-07T04:48:38.168Z,3.12
2023-04-07T04:51:08.629Z,3.16
2023-04-07T04:53:36.390Z,3.13
2023-04-07T04:56:04.082Z,3.11
2023-04-07T04:58:31.724Z,3.18
2023-04-07T05:01:00.431Z,3.20
2023-04-07T05:03:29.367Z,3.27
2023-04-07T05:05:57.219Z,3.25
2023-04-07T05:08:26.391Z,3.20
2023-04-07T05:10:55.086Z,3.22
2023-04-07T05:13:22.854Z,3.22
2023-04-07T05:15:50.655Z,3.46
2023-04-07T05:18:18.412Z,3.66
2023-04-07T05:20:46.153Z,3.76
2023-04-07T05:23:13.834Z,3.78
2023-04-07T05:25:42.938Z,3.74
2023-04-07T05:28:10.805Z,3.69
2023-04-07T05:30:38.636Z,3.66
2023-04-07T05:33:06.326Z,3.59
2023-04-07T05:35:34.066Z,3.57
2023-04-07T05:38:01.847Z,3.54
2023-04-07T05:40:30.225Z,3.52
2023-04-07T05:42:59.272Z,3.54
2023-04-07T05:45:26.973Z,3.59
2023-04-07T05:47:54.707Z,3.57
2023-04-07T05:50:22.370Z,3.50
2023-04-07T05:52:50.042Z,3.55
2023-04-07T05:55:17.815Z,3.54
2023-04-07T05:57:45.452Z,3.61
2023-04-07T06:00:15.952Z,3.67
2023-04-07T06:02:43.536Z,3.69
2023-04-07T06:05:11.381Z,3.75
2023-04-07T06:07:39.197Z,3.75
2023-04-07T06:10:08.322Z,3.81
2023-04-07T06:12:35.986Z,3.78
2023-04-07T06:15:03.753Z,3.75
2023-04-07T06:17:32.704Z,3.73
2023-04-07T06:20:00.423Z,3.76
2023-04-07T06:22:28.095Z,3.72
2023-04-07T06:24:55.798Z,3.77
2023-04-07T06:27:23.473Z,3.78
2023-04-07T06:29:51.154Z,3.87
2023-04-07T06:32:18.937Z,3.86
2023-04-07T06:34:47.968Z,3.88
2023-04-07T06:37:16.863Z,3.94
2023-04-07T06:39:45.370Z,4.00
2023-04-07T06:42:13.112Z,4.07
2023-04-07T06:44:40.721Z,4.09
2023-04-07T06:47:09.033Z,4.10
2023-04-07T06:49:37.335Z,4.10
2023-04-07T06:52:06.860Z,4.15
2023-04-07T06:54:34.677Z,4.19
2023-04-07T06:57:02.669Z,4.18
2023-04-07T06:59:30.473Z,4.22
2023-04-07T07:01:58.327Z,4.24
2023-04-07T07:04:26.712Z,4.23
2023-04-07T07:06:55.922Z,4.39
2023-04-07T07:09:24.998Z,4.44
2023-04-07T07:11:52.719Z,4.51
2023-04-07T07:14:20.473Z,4.54
2023-04-07T07:16:48.165Z,4.51
2023-04-07T07:19:16.771Z,4.48
2023-04-07T07:21:44.539Z,4.59
2023-04-07T07:24:12.176Z,4.64
2023-04-07T07:26:43.469Z,4.75
2023-04-07T07:29:11.765Z,4.85
2023-04-07T07:31:39.530Z,4.80
2023-04-07T07:34:07.513Z,4.79
2023-04-07T07:36:35.150Z,4.83
2023-04-07T07:39:02.870Z,4.86
2023-04-07T07:41:30.895Z,4.95
2023-04-07T07:43:59.995Z,4.90
2023-04-07T07:46:27.757Z,4.98
2023-04-07T07:48:55.631Z,4.95
2023-04-07T07:51:23.487Z,5.09
2023-04-07T07:53:51.266Z,5.12
2023-04-07T07:56:18.975Z,5.15
2023-04-07T07:58:46.666Z,5.11
2023-04-07T08:01:15.862Z,5.25
2023-04-07T08:03:43.695Z,5.13
2023-04-07T08:06:11.913Z,5.14
2023-04-07T08:08:39.998Z,5.15
2023-04-07T08:11:07.605Z,5.27
2023-04-07T08:13:35.300Z,5.42
2023-04-07T08:16:03.240Z,5.43
2023-04-07T08:18:32.345Z,5.44
2023-04-07T08:20:59.927Z,5.55
2023-04-07T08:23:27.620Z,5.67
2023-04-07T08:25:55.421Z,5.70
2023-04-07T08:28:23.065Z,5.74
2023-04-07T08:30:50.732Z,5.79
2023-04-07T08:33:18.502Z,5.85
2023-04-07T08:35:47.599Z,5.84
2023-04-07T08:38:15.444Z,5.80
2023-04-07T08:40:43.068Z,5.83
2023-04-07T08:43:11.585Z,5.85
2023-04-07T08:45:42.121Z,5.87
2023-04-07T08:48:14.035Z,5.85
2023-04-07T08:50:45.342Z,5.89
2023-04-07T08:53:15.592Z,5.90
2023-04-07T08:55:43.219Z,5.83
2023-04-07T08:58:13.210Z,5.82
2023-04-07T09:00:42.836Z,5.91
2023-04-07T09:03:11.995Z,5.77
2023-04-07T09:05:40.486Z,5.68
2023-04-07T09:08:08.156Z,5.64
2023-04-07T09:10:37.445Z,5.63
2023-04-07T09:13:05.392Z,5.68
2023-04-07T09:15:33.408Z,5.67
2023-04-07T09:18:01.171Z,5.63
2023-04-07T09:20:28.938Z,5.63
2023-04-07T09:22:56.695Z,5.59
2023-04-07T09:25:27.146Z,5.53
2023-04-07T09:27:58.226Z,5.63
2023-04-07T09:30:26.432Z,5.62
2023-04-07T09:32:54.587Z,5.57
2023-04-07T09:35:23.771Z,5.55
2023-04-07T09:38:05.182Z,5.56
2023-04-07T09:40:33.384Z,5.59
2023-04-07T09:43:04.050Z,5.57
2023-04-07T09:45:35.734Z,5.60
2023-04-07T09:48:08.666Z,5.56
2023-04-07T09:50:37.650Z,5.49
2023-04-07T09:53:05.399Z,5.50
2023-04-07T09:55:33.686Z,5.57
2023-04-07T09:58:03.173Z,5.56
2023-04-07T10:00:31.039Z,5.60
2023-04-07T10:02:59.182Z,5.65
2023-04-07T10:05:27.218Z,5.64
2023-04-07T10:07:55.326Z,5.67
2023-04-07T10:10:23.029Z,5.66
2023-04-07T10:12:54.581Z,5.63
2023-04-07T10:15:24.361Z,5.59
2023-04-07T10:17:52.761Z,5.49
2023-04-07T10:20:21.587Z,5.45
2023-04-07T10:22:51.371Z,5.42
2023-04-07T10:25:22.187Z,5.42
2023-04-07T10:27:53.635Z,5.49
2023-04-07T10:30:26.249Z,5.55
2023-04-07T10:32:55.192Z,5.65
2023-04-07T10:35:23.917Z,5.51
2023-04-07T10:38:13.635Z,5.53
2023-04-07T10:40:43.418Z,5.49
2023-04-07T10:43:12.275Z,5.54
2023-04-07T10:45:59.748Z,5.58
2023-04-07T10:48:32.890Z,5.66
2023-04-07T10:51:15.414Z,5.57
2023-04-07T10:54:20.654Z,5.57
2023-04-07T10:57:11.735Z,5.67
2023-04-07T10:59:41.267Z,5.67
2023-04-07T11:02:36.219Z,5.63
2023-04-07T11:05:04.828Z,5.67
2023-04-07T11:07:50.932Z,5.67
2023-04-07T11:10:19.459Z,5.67
2023-04-07T11:13:00.628Z,5.67
2023-04-07T11:15:28.548Z,5.66
2023-04-07T11:18:15.909Z,5.79
2023-04-07T11:20:46.223Z,5.83
2023-04-07T11:23:14.610Z,5.83
2023-04-07T11:25:44.610Z,5.80
2023-04-07T11:28:14.153Z,5.71
2023-04-07T11:30:48.640Z,5.80
2023-04-07T11:33:19.260Z,5.73
2023-04-07T11:35:52.062Z,5.79
2023-04-07T11:38:21.112Z,5.73
2023-04-07T11:40:48.956Z,5.73
2023-04-07T11:43:18.384Z,5.60
2023-04-07T11:45:46.171Z,5.57
2023-04-07T11:48:32.315Z,5.64
2023-04-07T11:51:00.484Z,5.58
2023-04-07T11:53:30.066Z,5.54
2023-04-07T11:56:02.651Z,5.53
2023-04-07T11:58:30.544Z,5.53
2023-04-07T12:00:59.199Z,5.58
2023-04-07T12:03:27.418Z,5.57
2023-04-07T12:05:56.658Z,5.53
2023-04-07T12:08:38.289Z,5.48
2023-04-07T12:11:06.360Z,5.45
2023-04-07T12:13:34.062Z,5.41
2023-04-07T12:16:02.026Z,5.31
2023-04-07T12:18:30.051Z,5.40
2023-04-07T12:20:59.110Z,5.53
2023-04-07T12:23:27.284Z,5.48
2023-04-07T12:25:55.029Z,5.45
2023-04-07T12:28:22.683Z,5.48
2023-04-07T12:30:50.362Z,5.54
2023-04-07T12:33:18.055Z,5.51
2023-04-07T12:35:46.162Z,5.50
2023-04-07T12:38:15.549Z,5.57
2023-04-07T12:40:43.768Z,5.59
2023-04-07T12:43:11.463Z,5.68
2023-04-07T12:45:39.205Z,5.62
2023-04-07T12:48:07.015Z,5.69
2023-04-07T12:50:36.314Z,5.79
2023-04-07T12:53:05.308Z,5.95
2023-04-07T12:55:35.624Z,6.12
2023-04-07T12:58:03.420Z,6.03
2023-04-07T13:00:31.434Z,5.94
2023-04-07T13:02:59.305Z,5.91
2023-04-07T13:05:27.366Z,5.83
2023-04-07T13:07:55.017Z,5.81
2023-04-07T13:10:22.738Z,5.78
2023-04-07T13:12:51.774Z,5.81
2023-04-07T13:15:19.540Z,5.81
2023-04-07T13:17:47.709Z,5.81
2023-04-07T13:20:19.518Z,5.86
2023-04-07T13:22:52.094Z,5.77
2023-04-07T13:25:31.522Z,5.83
2023-04-07T13:28:00.576Z,5.71
2023-04-07T13:30:28.524Z,5.74
2023-04-07T13:32:56.194Z,5.77
2023-04-07T13:35:24.182Z,5.72
2023-04-07T13:37:51.889Z,5.75
2023-04-07T13:40:19.918Z,5.73
2023-04-07T13:42:47.572Z,5.68
2023-04-07T13:45:16.599Z,5.69
2023-04-07T13:47:44.291Z,5.65
2023-04-07T13:50:11.971Z,5.61
2023-04-07T13:52:39.731Z,5.66
2023-04-07T13:55:08.136Z,5.63
2023-04-07T13:57:35.825Z,5.63
2023-04-07T14:00:04.000Z,5.64
2023-04-07T14:02:34.178Z,5.63
2023-04-07T14:05:02.030Z,5.60
2023-04-07T14:07:29.711Z,5.55
2023-04-07T14:09:58.346Z,5.63
2023-04-07T14:12:26.480Z,5.59
2023-04-07T14:14:54.841Z,5.60
2023-04-07T14:17:22.577Z,5.68
2023-04-07T14:19:51.625Z,5.69
2023-04-07T14:22:19.942Z,5.72
2023-04-07T14:24:47.711Z,5.69
2023-04-07T14:27:20.640Z,5.77
2023-04-07T14:29:48.763Z,5.71
2023-04-07T14:32:16.782Z,5.68
2023-04-07T14:34:44.439Z,5.71
2023-04-07T14:37:14.040Z,5.72
2023-04-07T14:39:48.523Z,5.71
2023-04-07T14:42:23.494Z,5.66
2023-04-07T14:44:51.200Z,5.74
2023-04-07T14:47:18.901Z,5.72
2023-04-07T14:49:46.590Z,5.68
2023-04-07T14:52:15.575Z,5.62
2023-04-07T14:54:43.347Z,5.70
2023-04-07T14:57:11.514Z,5.62
2023-04-07T14:59:39.126Z,5.60
2023-04-07T15:02:07.421Z,5.53
2023-04-07T15:04:35.316Z,5.49
2023-04-07T15:07:03.188Z,5.58
2023-04-07T15:09:32.240Z,5.70
2023-04-07T15:12:00.977Z,5.65
2023-04-07T15:14:29.018Z,5.66
2023-04-07T15:16:56.747Z,5.63
2023-04-07T15:19:24.485Z,5.62
2023-04-07T15:21:52.135Z,5.66
2023-04-07T15:24:22.114Z,5.63
2023-04-07T15:26:51.229Z,5.57
2023-04-07T15:29:18.947Z,5.55
2023-04-07T15:31:46.672Z,5.55
2023-04-07T15:34:14.879Z,5.66
2023-04-07T15:36:42.573Z,5.66
2023-04-07T15:39:10.282Z,5.69
2023-04-07T15:41:37.958Z,5.70
2023-04-07T15:44:07.380Z,5.72
2023-04-07T15:46:35.066Z,5.72
2023-04-07T15:49:02.776Z,5.77
2023-04-07T15:51:31.037Z,5.81
2023-04-07T15:53:58.800Z,5.79
2023-04-07T15:56:26.446Z,5.72
2023-04-07T15:58:54.292Z,5.74
2023-04-07T16:01:23.525Z,5.77
2023-04-07T16:03:51.458Z,5.78
2023-04-07T16:06:19.506Z,5.78
2023-04-07T16:08:47.270Z,5.85
2023-04-07T16:11:14.979Z,5.87
2023-04-07T16:13:42.670Z,5.74
2023-04-07T16:16:10.436Z,5.78
2023-04-07T16:18:39.491Z,5.78
2023-04-07T16:21:08.550Z,5.79
2023-04-07T16:23:36.338Z,5.79
2023-04-07T16:26:04.395Z,5.82
2023-04-07T16:28:32.039Z,5.76
2023-04-07T16:30:59.745Z,5.71
2023-04-07T16:33:28.070Z,5.65
2023-04-07T16:35:57.195Z,5.56
2023-04-07T16:38:25.029Z,5.57
2023-04-07T16:41:03.202Z,5.63
2023-04-07T16:43:31.916Z,5.66
2023-04-07T16:46:00.209Z,5.70
2023-04-07T16:48:28.113Z,5.69
2023-04-07T16:50:57.172Z,5.66
2023-04-07T16:53:24.780Z,5.60
2023-04-07T16:55:52.433Z,5.53
2023-04-07T16:58:20.195Z,5.58
2023-04-07T17:00:47.932Z,5.64
2023-04-07T17:03:16.042Z,5.71
2023-04-07T17:05:44.608Z,5.73
2023-04-07T17:08:13.905Z,5.69
2023-04-07T17:10:41.561Z,5.71
2023-04-07T17:13:09.167Z,5.77
2023-04-07T17:15:38.090Z,5.78
2023-04-07T17:18:05.961Z,5.69
2023-04-07T17:20:33.718Z,5.70
2023-04-07T17:23:01.431Z,5.69
2023-04-07T17:25:30.459Z,5.73
2023-04-07T17:27:58.102Z,5.76
2023-04-07T17:30:25.809Z,5.78
2023-04-07T17:32:53.913Z,5.75
2023-04-07T17:35:22.000Z,5.74
2023-04-07T17:37:50.746Z,5.69
2023-04-07T17:40:18.597Z,5.69
2023-04-07T17:42:48.481Z,5.70
2023-04-07T17:45:16.220Z,5.63
2023-04-07T17:47:46.294Z,5.68
2023-04-07T17:50:14.509Z,5.70
2023-04-07T17:52:42.176Z,5.65
2023-04-07T17:55:10.778Z,5.65
2023-04-07T17:57:38.476Z,5.66
2023-04-07T18:00:09.036Z,5.69
2023-04-07T18:02:37.436Z,5.61
2023-04-07T18:05:07.358Z,5.62
2023-04-07T18:07:35.174Z,5.64
2023-04-07T18:10:04.070Z,5.62
2023-04-07T18:12:32.336Z,5.64
2023-04-07T18:14:59.942Z,5.65
2023-04-07T18:17:28.958Z,5.61
2023-04-07T18:19:56.626Z,5.67
2023-04-07T18:22:24.248Z,5.72
2023-04-07T18:24:52.214Z,5.64
2023-04-07T18:27:23.819Z,5.58
2023-04-07T18:29:51.462Z,5.62
2023-04-07T18:32:19.100Z,5.63
2023-04-07T18:34:49.144Z,5.65
2023-04-07T18:37:16.894Z,5.65
2023-04-07T18:39:44.886Z,5.71
2023-04-07T18:42:12.742Z,5.73
2023-04-07T18:44:40.564Z,5.66
2023-04-07T18:47:08.451Z,5.58
2023-04-07T18:49:36.209Z,5.60
2023-04-07T18:52:05.607Z,5.65
2023-04-07T18:54:33.403Z,5.62
2023-04-07T18:57:01.366Z,5.59
2023-04-07T18:59:29.244Z,5.55
2023-04-07T19:01:57.213Z,5.60
2023-04-07T19:04:25.904Z,5.56
2023-04-07T19:06:54.097Z,5.50
2023-04-07T19:09:23.300Z,5.46
2023-04-07T19:11:52.376Z,5.44
2023-04-07T19:14:20.206Z,5.42
2023-04-07T19:16:48.131Z,5.42
2023-04-07T19:19:17.263Z,5.40
2023-04-07T19:21:45.135Z,5.35
2023-04-07T19:24:13.011Z,5.34
2023-04-07T19:26:42.850Z,5.29
2023-04-07T19:29:12.382Z,5.28
2023-04-07T19:31:40.329Z,5.29
2023-04-07T19:34:08.176Z,5.29
2023-04-07T19:36:36.125Z,5.27
2023-04-07T19:39:05.317Z,5.32
2023-04-07T19:41:33.219Z,5.29
2023-04-07T19:44:02.339Z,5.30
2023-04-07T19:46:30.098Z,5.37
2023-04-07T19:48:57.899Z,5.41
2023-04-07T19:51:25.879Z,5.38
2023-04-07T19:53:53.689Z,5.40
2023-04-07T19:56:21.520Z,5.44
2023-04-07T19:58:49.601Z,5.47
2023-04-07T20:01:19.809Z,5.42
2023-04-07T20:03:47.799Z,5.37
2023-04-07T20:06:15.647Z,5.40
2023-04-07T20:08:43.638Z,5.40
2023-04-07T20:11:13.298Z,5.42
2023-04-07T20:13:42.461Z,5.38
2023-04-07T20:16:10.785Z,5.36
2023-04-07T20:18:39.950Z,5.33
2023-04-07T20:21:07.683Z,5.38
2023-04-07T20:23:35.457Z,5.37
2023-04-07T20:26:03.183Z,5.44
2023-04-07T20:28:31.216Z,5.41
2023-04-07T20:30:59.010Z,5.41
2023-04-07T20:33:26.775Z,5.33
2023-04-07T20:35:55.872Z,5.38
2023-04-07T20:38:23.578Z,5.45
2023-04-07T20:40:51.328Z,5.44
2023-04-07T20:43:21.777Z,5.44
2023-04-07T20:45:49.414Z,5.38
2023-04-07T20:48:23.118Z,5.37
2023-04-07T20:50:50.753Z,5.37
2023-04-07T20:53:19.882Z,5.40
2023-04-07T20:55:48.640Z,5.45
2023-04-07T20:58:17.609Z,5.43
2023-04-07T21:00:45.493Z,5.41
2023-04-07T21:03:13.489Z,5.39
2023-04-07T21:05:41.282Z,5.36
2023-04-07T21:08:09.047Z,5.32
2023-04-07T21:10:38.151Z,5.28
2023-04-07T21:13:05.767Z,5.31
2023-04-07T21:15:33.463Z,5.31
2023-04-07T21:18:01.194Z,5.35
2023-04-07T21:20:28.877Z,5.30
2023-04-07T21:22:56.612Z,5.29
2023-04-07T21:25:24.284Z,5.30
2023-04-07T21:27:53.491Z,5.37
2023-04-07T21:30:22.441Z,5.42
2023-04-07T21:32:50.331Z,5.40
2023-04-07T21:35:19.588Z,5.35
2023-04-07T21:37:47.376Z,5.38
2023-04-07T21:40:15.122Z,5.30
2023-04-07T21:42:42.782Z,5.28
2023-04-07T21:45:12.827Z,5.32
2023-04-07T21:47:40.631Z,5.35
2023-04-07T21:50:08.970Z,5.35
2023-04-07T21:52:36.835Z,5.31
2023-04-07T21:55:04.751Z,5.35
2023-04-07T21:57:32.402Z,5.34
2023-04-07T22:00:00.554Z,5.32
2023-04-07T22:02:30.002Z,5.29
2023-04-07T22:04:57.945Z,5.28
2023-04-07T22:07:25.793Z,5.25
2023-04-07T22:09:53.478Z,5.23
2023-04-07T22:12:21.153Z,5.27
2023-04-07T22:14:48.837Z,5.28
2023-04-07T22:17:17.226Z,5.28
2023-04-07T22:19:46.421Z,5.22
2023-04-07T22:22:14.215Z,5.23
2023-04-07T22:24:41.892Z,5.28
2023-04-07T22:27:09.522Z,5.22
2023-04-07T22:29:37.245Z,5.25
2023-04-07T22:32:05.008Z,5.31
2023-04-07T22:34:32.647Z,5.32
2023-04-07T22:37:01.800Z,5.30
2023-04-07T22:39:29.500Z,5.25
2023-04-07T22:41:57.255Z,5.20
2023-04-07T22:44:24.982Z,5.23
2023-04-07T22:46:52.733Z,5.19
2023-04-07T22:49:20.448Z,5.25
2023-04-07T22:51:48.636Z,5.24
2023-04-07T22:54:18.682Z,5.23
2023-04-07T22:56:46.327Z,5.25
2023-04-07T22:59:14.023Z,5.21
2023-04-07T23:01:41.719Z,5.19
2023-04-07T23:04:09.390Z,5.20
2023-04-07T23:06:37.088Z,5.16
2023-04-07T23:09:04.783Z,5.09
2023-04-07T23:11:33.774Z,5.10
2023-04-07T23:14:04.879Z,5.17
2023-04-07T23:16:32.626Z,5.21
2023-04-07T23:19:00.997Z,5.21
2023-04-07T23:21:31.320Z,5.24
2023-04-07T23:23:59.769Z,5.26
2023-04-07T23:26:27.742Z,5.27
2023-04-07T23:28:56.718Z,5.25
2023-04-07T23:31:24.448Z,5.27
2023-04-07T23:33:52.176Z,5.24
2023-04-07T23:36:19.871Z,5.24
2023-04-07T23:38:47.793Z,5.27
2023-04-07T23:41:15.647Z,5.38
2023-04-07T23:43:43.302Z,5.34
2023-04-07T23:46:12.493Z,5.30
2023-04-07T23:48:40.896Z,5.29
2023-04-07T23:51:08.543Z,5.32
2023-04-07T23:53:36.244Z,5.38
2023-04-07T23:56:03.999Z,5.33
2023-04-07T23:58:31.682Z,5.28
